首页
METAR-TAF:

METAR-TAF

机场 :

广州白云国际机场

广州, 中华人民共和国

纬度: 23-10N, 经度: 113-20E, 海拔: 8米

当前天气观测

该预报发布于37分钟前的04:00 UTC
风速2节,风向多变
温度 23°C
湿度 78%
气压 1016 hPa
能見度: 5000
多云层高于1500英尺
多云层高于3000英尺
轻雾

METAR: ZGGG 180400Z VRB01MPS 5000 BR BKN015 BKN030 23/19 Q1016 NOSIG

时间: 12:37 (04:37 UTC)

预报

该预报发布于7小时和36分钟前的21:01 UTC
预报有效从18日的 00点(UTC)到 18日的 24点(UTC)
风速8节,风向
能見度: 3500
散云层高于1100英尺
阴天层高于2600英尺
轻雾
成为
从 18日的 02点(UTC)到 18日的 03点(UTC)
能見度: 6000
短暂存在
从 18日的 06点(UTC)到 18日的 12点(UTC)
能見度: 2500
散云层高于800英尺
少量云层高于3000英尺, 积雨云.
多云层高于3300英尺
阵雨
短暂存在
从 18日的 18点(UTC)到 18日的 24点(UTC)
能見度: 4000

TAF: ZGGG 172101Z 1800/1824 36004MPS 3500 BR SCT011 OVC026 TX23/1807Z TN16/1822Z BECMG 1802/1803 6000 TEMPO 1806/1812 2500 SHRA SCT008 FEW030CB BKN033 TEMPO 1818/1824 4000 RA

超过4000个机场的气象观测和天气预报(METAR&TAF报告)。

可查询的气象台以黄色和红色小点在地图上表示。

将鼠标移到小点上方,可查看气象台名称。

然后点击查看天气观测和预报。

如需切换地图:点击带黑十字的绿色按钮放大地图;点击带横线的绿色按钮缩小地图;或者点击绿色箭头查看邻近地区的地图。


METAR-TAF: